Time;durP1;ratioP1;P1;durP2;ratioP2;P2;SDS_P1;SDS_P2;PMS_P1;PMS_P2;Temp;Humidity;BMP_temperature;BMP_pressure;BME280_temperature;BME280_humidity;BME280_pressure;Samples;Min_cycle;Max_cycle;Signal;HPM_P1;HPM_P2
2021/09/19 00:02:10;;;;;;;16.65;7.12;;;;;;;;;;143732;571;45021;-55
2021/09/19 00:04:37;;;;;;;19.73;6.93;;;;;;;;;;143734;570;46021;-55
2021/09/19 00:07:04;;;;;;;20.12;7.32;;;;;;;;;;143730;606;46030;-55
2021/09/19 00:09:32;;;;;;;18.08;6.70;;;;;;;;;;143729;593;46013;-55
2021/09/19 00:11:59;;;;;;;24.52;8.88;;;;;;;;;;143732;583;45021;-55
2021/09/19 00:14:26;;;;;;;19.20;7.30;;;;;;;;;;143734;573;45020;-55
2021/09/19 00:16:53;;;;;;;20.58;7.37;;;;;;;;;;143728;674;47020;-55
2021/09/19 00:19:20;;;;;;;21.08;7.12;;;;;;;;;;143729;617;46012;-55
2021/09/19 00:21:46;;;;;;;20.67;6.68;;;;;;;;;;143737;607;45018;-55
2021/09/19 00:24:14;;;;;;;13.40;5.40;;;;;;;;;;143733;620;46010;-55
2021/09/19 00:26:41;;;;;;;20.90;6.93;;;;;;;;;;143727;611;46019;-55
2021/09/19 00:29:08;;;;;;;16.95;6.65;;;;;;;;;;143730;588;46012;-55
2021/09/19 00:31:35;;;;;;;17.12;6.30;;;;;;;;;;143731;566;45019;-55
2021/09/19 00:34:02;;;;;;;21.67;7.35;;;;;;;;;;143734;608;45023;-55
2021/09/19 00:36:29;;;;;;;19.73;6.22;;;;;;;;;;143728;614;46018;-55
2021/09/19 00:38:56;;;;;;;18.60;7.05;;;;;;;;;;143728;570;46013;-55
2021/09/19 00:41:23;;;;;;;14.15;6.37;;;;;;;;;;143731;565;45021;-55
2021/09/19 00:43:50;;;;;;;24.73;7.57;;;;;;;;;;143734;593;45022;-55
2021/09/19 00:46:17;;;;;;;22.58;7.10;;;;;;;;;;143728;619;46019;-55
2021/09/19 00:48:44;;;;;;;24.27;8.13;;;;;;;;;;143730;608;46012;-55
2021/09/19 00:51:11;;;;;;;25.90;8.05;;;;;;;;;;143732;569;45018;-55
2021/09/19 00:53:39;;;;;;;15.25;7.28;;;;;;;;;;143732;569;46022;-54
2021/09/19 00:56:07;;;;;;;22.10;7.43;;;;;;;;;;143728;657;46019;-55
2021/09/19 00:58:35;;;;;;;23.80;8.02;;;;;;;;;;143730;572;46012;-55
2021/09/19 01:01:03;;;;;;;20.75;7.70;;;;;;;;;;143732;621;45018;-55
2021/09/19 01:03:30;;;;;;;26.55;8.02;;;;;;;;;;143732;612;46023;-55
2021/09/19 01:05:57;;;;;;;16.42;6.75;;;;;;;;;;143729;585;46018;-55
2021/09/19 01:08:24;;;;;;;18.67;7.35;;;;;;;;;;143730;635;46012;-54
2021/09/19 01:10:52;;;;;;;18.65;6.78;;;;;;;;;;143731;633;45019;-55
2021/09/19 01:13:19;;;;;;;24.73;7.05;;;;;;;;;;143732;607;46010;-55
2021/09/19 01:15:47;;;;;;;17.95;6.75;;;;;;;;;;143727;604;46020;-54
2021/09/19 01:18:17;;;;;;;18.35;5.97;;;;;;;;;;143726;586;46023;-55
2021/09/19 01:20:44;;;;;;;16.08;5.65;;;;;;;;;;143730;604;45018;-55
2021/09/19 01:23:14;;;;;;;24.33;7.32;;;;;;;;;;143734;587;45022;-55
2021/09/19 01:25:42;;;;;;;21.27;6.75;;;;;;;;;;143726;570;47019;-55
2021/09/19 01:28:10;;;;;;;17.20;6.22;;;;;;;;;;143729;572;46012;-55
2021/09/19 01:30:38;;;;;;;12.32;6.53;;;;;;;;;;143731;586;45018;-55
2021/09/19 01:33:06;;;;;;;19.45;6.80;;;;;;;;;;143733;577;46023;-55
2021/09/19 01:35:34;;;;;;;18.62;6.85;;;;;;;;;;143758;591;45018;-55
2021/09/19 01:38:01;;;;;;;27.13;7.25;;;;;;;;;;143757;564;45920;-55
2021/09/19 01:40:28;;;;;;;20.37;6.97;;;;;;;;;;143758;587;44912;-55
2021/09/19 01:42:56;;;;;;;16.98;6.90;;;;;;;;;;143761;613;45022;-55
2021/09/19 01:45:23;;;;;;;20.75;6.70;;;;;;;;;;143760;583;45018;-55
2021/09/19 01:47:51;;;;;;;13.00;6.40;;;;;;;;;;143755;596;46012;-55
2021/09/19 01:50:23;;;;;;;17.33;6.65;;;;;;;;;;143760;586;44912;-55
2021/09/19 01:52:51;;;;;;;14.50;5.97;;;;;;;;;;143760;565;45022;-56
2021/09/19 01:55:18;;;;;;;17.80;6.05;;;;;;;;;;143759;601;45019;-55
2021/09/19 01:57:45;;;;;;;22.65;6.95;;;;;;;;;;143757;577;45021;-55
2021/09/19 02:00:13;;;;;;;16.15;6.40;;;;;;;;;;143756;582;45018;-55
2021/09/19 02:02:41;;;;;;;19.65;6.75;;;;;;;;;;143761;579;45022;-55
2021/09/19 02:05:10;;;;;;;18.00;6.87;;;;;;;;;;143756;633;45018;-55
2021/09/19 02:07:38;;;;;;;19.75;7.12;;;;;;;;;;143756;575;45920;-55
2021/09/19 02:10:10;;;;;;;18.00;6.15;;;;;;;;;;143761;581;44019;-55
2021/09/19 02:12:38;;;;;;;18.70;6.65;;;;;;;;;;143758;572;45022;-55
2021/09/19 02:15:07;;;;;;;16.15;6.43;;;;;;;;;;143758;631;45018;-55
2021/09/19 02:17:34;;;;;;;15.55;6.53;;;;;;;;;;143757;574;45013;-55
2021/09/19 02:20:01;;;;;;;18.30;6.55;;;;;;;;;;143760;580;44912;-55
2021/09/19 02:22:28;;;;;;;18.35;6.43;;;;;;;;;;143761;587;45010;-54
2021/09/19 02:24:55;;;;;;;20.40;6.35;;;;;;;;;;143759;587;45019;-55
2021/09/19 02:27:22;;;;;;;15.52;6.62;;;;;;;;;;143755;615;45920;-54
2021/09/19 02:29:50;;;;;;;18.62;6.65;;;;;;;;;;143759;606;45012;-55
2021/09/19 02:32:17;;;;;;;18.48;5.90;;;;;;;;;;143761;566;45010;-55
2021/09/19 02:34:44;;;;;;;18.08;6.43;;;;;;;;;;143741;601;46018;-55
2021/09/19 02:37:11;;;;;;;16.62;6.10;;;;;;;;;;143732;579;46012;-55
2021/09/19 02:39:38;;;;;;;16.98;6.53;;;;;;;;;;143731;592;45019;-55
2021/09/19 02:42:06;;;;;;;16.10;6.70;;;;;;;;;;143734;583;45023;-55
2021/09/19 02:44:33;;;;;;;18.12;6.80;;;;;;;;;;143727;611;47018;-54
2021/09/19 02:47:00;;;;;;;32.85;7.55;;;;;;;;;;143728;609;46023;-55
2021/09/19 02:49:27;;;;;;;15.32;6.78;;;;;;;;;;143732;613;45018;-55
2021/09/19 02:51:54;;;;;;;22.98;7.75;;;;;;;;;;143734;625;45022;-55
2021/09/19 02:54:21;;;;;;;14.90;6.15;;;;;;;;;;143731;590;45912;-55
2021/09/19 02:56:48;;;;;;;21.92;7.53;;;;;;;;;;143728;589;46012;-55
2021/09/19 02:59:15;;;;;;;24.98;8.07;;;;;;;;;;143731;581;45020;-55
2021/09/19 03:01:42;;;;;;;19.75;7.10;;;;;;;;;;143733;572;46013;-55
2021/09/19 03:04:09;;;;;;;25.12;7.95;;;;;;;;;;143727;564;46020;-55
2021/09/19 03:06:36;;;;;;;18.33;7.70;;;;;;;;;;143729;630;46012;-55
2021/09/19 03:09:03;;;;;;;24.42;7.12;;;;;;;;;;143730;576;45019;-55
2021/09/19 03:11:30;;;;;;;27.08;7.70;;;;;;;;;;143733;566;46023;-55
2021/09/19 03:13:57;;;;;;;20.58;7.87;;;;;;;;;;143729;598;46018;-55
2021/09/19 03:16:24;;;;;;;17.80;6.97;;;;;;;;;;143729;571;46012;-55
2021/09/19 03:18:51;;;;;;;20.62;7.62;;;;;;;;;;143731;587;45019;-55
2021/09/19 03:21:18;;;;;;;17.27;6.45;;;;;;;;;;143730;591;47010;-55
2021/09/19 03:23:45;;;;;;;23.62;7.68;;;;;;;;;;143728;648;46019;-55
2021/09/19 03:26:13;;;;;;;20.45;7.60;;;;;;;;;;143728;582;46012;-55
2021/09/19 03:28:40;;;;;;;20.42;7.32;;;;;;;;;;143732;564;45018;-55
2021/09/19 03:31:07;;;;;;;22.42;7.20;;;;;;;;;;143732;575;46010;-55
2021/09/19 03:33:34;;;;;;;18.90;6.72;;;;;;;;;;143729;565;46019;-55
2021/09/19 03:36:01;;;;;;;24.33;7.22;;;;;;;;;;143728;570;46012;-55
2021/09/19 03:38:28;;;;;;;20.12;7.25;;;;;;;;;;143731;567;45021;-56
2021/09/19 03:40:55;;;;;;;19.58;7.03;;;;;;;;;;143733;607;46023;-55
2021/09/19 03:43:22;;;;;;;19.00;6.55;;;;;;;;;;143729;596;46018;-55
2021/09/19 03:45:49;;;;;;;17.90;5.72;;;;;;;;;;143730;602;46012;-55
2021/09/19 03:48:17;;;;;;;25.95;7.85;;;;;;;;;;143730;598;45019;-55
2021/09/19 03:50:45;;;;;;;31.65;7.32;;;;;;;;;;143734;583;45022;-55
2021/09/19 03:53:12;;;;;;;23.77;7.10;;;;;;;;;;143730;661;46019;-54
2021/09/19 03:55:39;;;;;;;23.60;6.75;;;;;;;;;;143730;565;46012;-55
2021/09/19 03:58:07;;;;;;;19.77;6.22;;;;;;;;;;143732;619;45018;-55
2021/09/19 04:00:34;;;;;;;26.12;7.15;;;;;;;;;;143734;564;45023;-55
2021/09/19 04:03:01;;;;;;;16.65;6.10;;;;;;;;;;143728;639;46019;-55
2021/09/19 04:05:28;;;;;;;19.60;6.22;;;;;;;;;;143730;596;46012;-55
2021/09/19 04:07:55;;;;;;;20.75;6.75;;;;;;;;;;143732;606;45019;-55
2021/09/19 04:10:22;;;;;;;14.25;6.15;;;;;;;;;;143732;619;46023;-55
2021/09/19 04:12:49;;;;;;;30.73;7.43;;;;;;;;;;143729;585;46018;-55
2021/09/19 04:15:16;;;;;;;18.20;7.53;;;;;;;;;;143731;615;46013;-55
2021/09/19 04:17:43;;;;;;;22.10;8.95;;;;;;;;;;143731;606;45021;-55
2021/09/19 04:20:11;;;;;;;18.70;8.00;;;;;;;;;;143733;659;46022;-55
2021/09/19 04:22:38;;;;;;;16.12;7.37;;;;;;;;;;143729;565;46019;-55
2021/09/19 04:25:06;;;;;;;15.82;7.22;;;;;;;;;;143727;588;46013;-56
2021/09/19 04:27:33;;;;;;;20.58;6.72;;;;;;;;;;143731;591;45021;-55
2021/09/19 04:30:00;;;;;;;17.12;6.75;;;;;;;;;;143731;569;46022;-55
2021/09/19 04:32:27;;;;;;;18.37;6.90;;;;;;;;;;143725;569;46019;-55
2021/09/19 04:34:54;;;;;;;16.95;6.95;;;;;;;;;;143728;739;46012;-55
2021/09/19 04:37:21;;;;;;;19.67;6.72;;;;;;;;;;143729;564;45018;-55
2021/09/19 04:39:48;;;;;;;18.87;6.65;;;;;;;;;;143729;570;46023;-54
2021/09/19 04:42:16;;;;;;;22.48;6.47;;;;;;;;;;143725;590;46020;-55
2021/09/19 04:44:43;;;;;;;19.45;6.15;;;;;;;;;;143728;577;46012;-56
2021/09/19 04:47:11;;;;;;;24.67;7.10;;;;;;;;;;143728;626;46019;-55
2021/09/19 04:49:39;;;;;;;23.33;7.22;;;;;;;;;;143732;564;45028;-55
2021/09/19 04:52:06;;;;;;;29.05;7.10;;;;;;;;;;143725;605;46018;-56
2021/09/19 04:54:33;;;;;;;15.82;5.78;;;;;;;;;;143727;569;46012;-56
2021/09/19 04:57:01;;;;;;;24.37;6.43;;;;;;;;;;143728;589;45018;-55
2021/09/19 04:59:28;;;;;;;14.77;5.35;;;;;;;;;;143732;580;45022;-55
2021/09/19 05:01:55;;;;;;;17.60;6.32;;;;;;;;;;143728;570;46018;-55
2021/09/19 05:04:22;;;;;;;17.70;5.78;;;;;;;;;;143727;591;46012;-55
2021/09/19 05:06:49;;;;;;;16.33;5.57;;;;;;;;;;143730;605;45018;-55
2021/09/19 05:09:16;;;;;;;19.17;5.45;;;;;;;;;;143731;569;46023;-55
2021/09/19 05:11:43;;;;;;;21.35;7.90;;;;;;;;;;143726;582;46018;-55
2021/09/19 05:14:10;;;;;;;24.92;7.93;;;;;;;;;;143727;587;46012;-55
2021/09/19 05:16:38;;;;;;;22.25;7.43;;;;;;;;;;143729;564;45019;-55
2021/09/19 05:19:05;;;;;;;28.85;9.63;;;;;;;;;;143730;614;46010;-55
2021/09/19 05:21:33;;;;;;;30.00;9.07;;;;;;;;;;143727;589;46018;-55
2021/09/19 05:24:00;;;;;;;22.08;7.70;;;;;;;;;;143727;707;46012;-55
2021/09/19 05:26:27;;;;;;;27.30;8.07;;;;;;;;;;143728;585;45018;-55
2021/09/19 05:28:55;;;;;;;18.52;7.40;;;;;;;;;;143731;564;46022;-55
2021/09/19 05:31:21;;;;;;;26.25;8.48;;;;;;;;;;143725;575;46019;-55
2021/09/19 05:33:49;;;;;;;22.87;7.43;;;;;;;;;;143728;612;46012;-55
2021/09/19 05:36:16;;;;;;;19.65;7.25;;;;;;;;;;143730;612;45018;-55
2021/09/19 05:38:43;;;;;;;22.92;7.25;;;;;;;;;;143732;646;45024;-54
2021/09/19 05:41:10;;;;;;;11.32;5.72;;;;;;;;;;143727;580;46018;-54
2021/09/19 05:43:37;;;;;;;23.05;7.37;;;;;;;;;;143726;616;46012;-54
2021/09/19 05:46:04;;;;;;;17.12;5.72;;;;;;;;;;143728;638;45019;-54
2021/09/19 05:48:31;;;;;;;24.58;7.47;;;;;;;;;;143731;575;46010;-54
2021/09/19 05:50:59;;;;;;;32.40;6.43;;;;;;;;;;143728;618;46018;-54
2021/09/19 05:53:26;;;;;;;22.52;6.03;;;;;;;;;;143725;600;46012;-53
2021/09/19 05:55:53;;;;;;;24.48;6.80;;;;;;;;;;143728;579;45018;-54
2021/09/19 05:58:20;;;;;;;25.85;6.78;;;;;;;;;;143731;564;46022;-54
2021/09/19 06:00:48;;;;;;;23.02;6.60;;;;;;;;;;143727;637;46019;-53
2021/09/19 06:03:14;;;;;;;24.73;6.95;;;;;;;;;;143732;579;46012;-53
2021/09/19 06:05:41;;;;;;;23.55;7.07;;;;;;;;;;143729;574;45018;-53
2021/09/19 06:08:08;;;;;;;21.80;6.90;;;;;;;;;;143730;604;46023;-53
2021/09/19 06:10:35;;;;;;;24.73;7.70;;;;;;;;;;143728;564;46018;-54
2021/09/19 06:13:03;;;;;;;19.35;6.50;;;;;;;;;;143726;639;46012;-54
2021/09/19 06:15:31;;;;;;;25.08;7.53;;;;;;;;;;143728;606;45019;-54
2021/09/19 06:17:58;;;;;;;21.25;7.53;;;;;;;;;;143732;720;45023;-54
2021/09/19 06:20:25;;;;;;;19.05;6.72;;;;;;;;;;143728;624;46018;-54
2021/09/19 06:22:52;;;;;;;22.10;6.53;;;;;;;;;;143727;606;46013;-53
2021/09/19 06:25:19;;;;;;;17.70;6.70;;;;;;;;;;143729;597;45018;-54
2021/09/19 06:27:47;;;;;;;23.08;7.05;;;;;;;;;;143731;574;46022;-54
2021/09/19 06:30:14;;;;;;;28.08;6.47;;;;;;;;;;143727;597;46019;-54
2021/09/19 06:32:41;;;;;;;23.25;5.82;;;;;;;;;;143728;634;46012;-53
2021/09/19 06:35:10;;;;;;;23.45;6.78;;;;;;;;;;143731;575;45018;-53
2021/09/19 06:37:37;;;;;;;19.48;6.47;;;;;;;;;;143732;585;45023;-53
2021/09/19 06:40:04;;;;;;;17.73;5.68;;;;;;;;;;143729;592;45912;-53
2021/09/19 06:42:31;;;;;;;23.02;6.03;;;;;;;;;;143729;626;46012;-53
2021/09/19 06:44:58;;;;;;;20.23;6.07;;;;;;;;;;143729;647;45019;-54
2021/09/19 06:47:26;;;;;;;19.50;5.90;;;;;;;;;;143732;570;46010;-54
2021/09/19 06:49:53;;;;;;;20.05;6.07;;;;;;;;;;143726;574;46018;-53
2021/09/19 06:52:20;;;;;;;19.60;5.80;;;;;;;;;;143727;651;46012;-53
2021/09/19 06:54:48;;;;;;;24.10;6.55;;;;;;;;;;143729;578;45021;-53
2021/09/19 06:57:15;;;;;;;21.92;6.05;;;;;;;;;;143729;638;46010;-53
2021/09/19 06:59:41;;;;;;;18.80;5.90;;;;;;;;;;143726;631;46019;-53
2021/09/19 07:02:08;;;;;;;23.83;6.37;;;;;;;;;;143727;565;46012;-53
2021/09/19 07:04:36;;;;;;;20.85;5.90;;;;;;;;;;143729;576;45018;-53
2021/09/19 07:07:03;;;;;;;25.83;6.47;;;;;;;;;;143730;618;46022;-54
2021/09/19 07:09:30;;;;;;;15.20;5.03;;;;;;;;;;143726;578;46018;-54
2021/09/19 07:11:57;;;;;;;20.33;6.45;;;;;;;;;;143728;599;46012;-53
2021/09/19 07:14:24;;;;;;;17.05;6.05;;;;;;;;;;143730;617;45021;-54
2021/09/19 07:16:51;;;;;;;20.75;6.12;;;;;;;;;;143730;583;46024;-54
2021/09/19 07:19:18;;;;;;;23.20;6.12;;;;;;;;;;143726;587;46018;-54
2021/09/19 07:21:45;;;;;;;16.33;5.40;;;;;;;;;;143728;566;46013;-54
2021/09/19 07:24:13;;;;;;;15.65;5.22;;;;;;;;;;143729;651;46012;-54
2021/09/19 07:26:40;;;;;;;16.52;5.07;;;;;;;;;;143730;572;46022;-55
2021/09/19 07:29:07;;;;;;;16.15;5.75;;;;;;;;;;143727;687;46019;-55
2021/09/19 07:31:35;;;;;;;23.02;5.53;;;;;;;;;;143729;606;46012;-55
2021/09/19 07:34:03;;;;;;;17.40;5.78;;;;;;;;;;143731;575;45018;-55
2021/09/19 07:36:36;;;;;;;13.40;4.62;;;;;;;;;;143731;706;46022;-55
2021/09/19 07:39:07;;;;;;;18.77;5.50;;;;;;;;;;143725;579;46021;-54
2021/09/19 07:41:34;;;;;;;19.17;5.65;;;;;;;;;;143727;657;46012;-55
2021/09/19 07:44:02;;;;;;;18.02;5.30;;;;;;;;;;143731;583;46018;-55
2021/09/19 07:46:29;;;;;;;19.08;5.18;;;;;;;;;;143732;693;45023;-55
2021/09/19 07:48:56;;;;;;;20.50;4.97;;;;;;;;;;143727;609;46018;-53
2021/09/19 07:51:23;;;;;;;15.80;4.75;;;;;;;;;;143726;564;46013;-54
2021/09/19 07:53:52;;;;;;;16.40;5.85;;;;;;;;;;143729;581;45021;-54
2021/09/19 07:56:21;;;;;;;21.23;5.68;;;;;;;;;;143733;589;45022;-54
2021/09/19 07:58:49;;;;;;;21.58;5.50;;;;;;;;;;143723;573;46039;-54
2021/09/19 08:01:16;;;;;;;17.23;6.05;;;;;;;;;;143727;613;46012;-55
2021/09/19 08:03:43;;;;;;;17.33;5.00;;;;;;;;;;143729;604;45018;-55
2021/09/19 08:06:10;;;;;;;22.27;5.82;;;;;;;;;;143731;596;46022;-54
2021/09/19 08:08:37;;;;;;;20.27;5.15;;;;;;;;;;143724;569;47018;-54
2021/09/19 08:11:04;;;;;;;19.20;5.65;;;;;;;;;;143729;624;46012;-55
2021/09/19 08:13:31;;;;;;;17.00;4.97;;;;;;;;;;143728;585;45020;-54
2021/09/19 08:15:58;;;;;;;14.30;5.50;;;;;;;;;;143731;631;46023;-54
2021/09/19 08:18:26;;;;;;;17.10;5.75;;;;;;;;;;143725;604;46020;-54
2021/09/19 08:20:53;;;;;;;16.90;5.10;;;;;;;;;;143726;570;46012;-54
2021/09/19 08:23:20;;;;;;;25.95;6.15;;;;;;;;;;143729;589;45913;-54
2021/09/19 08:25:47;;;;;;;20.62;6.30;;;;;;;;;;143732;744;45022;-54
2021/09/19 08:28:14;;;;;;;19.85;5.68;;;;;;;;;;143727;578;46019;-55
2021/09/19 08:30:42;;;;;;;19.00;5.70;;;;;;;;;;143727;608;46012;-55
2021/09/19 08:33:10;;;;;;;21.75;5.93;;;;;;;;;;143730;642;45021;-55
2021/09/19 08:35:38;;;;;;;21.65;5.40;;;;;;;;;;143730;650;46011;-55
2021/09/19 08:38:06;;;;;;;18.33;5.43;;;;;;;;;;143729;695;46018;-54
2021/09/19 08:40:33;;;;;;;20.88;6.07;;;;;;;;;;143726;581;46012;-54
2021/09/19 08:43:00;;;;;;;23.85;6.50;;;;;;;;;;143730;576;45019;-56
2021/09/19 08:45:27;;;;;;;22.40;6.50;;;;;;;;;;143732;659;45028;-56
2021/09/19 08:47:55;;;;;;;22.37;6.62;;;;;;;;;;143728;564;46018;-55
2021/09/19 08:50:21;;;;;;;11.00;5.03;;;;;;;;;;143728;580;46013;-55
2021/09/19 08:52:49;;;;;;;18.33;6.55;;;;;;;;;;143732;598;45019;-55
2021/09/19 08:55:17;;;;;;;15.15;5.07;;;;;;;;;;143732;590;45022;-55
2021/09/19 08:57:46;;;;;;;17.30;5.90;;;;;;;;;;143727;581;46019;-54
2021/09/19 09:00:16;;;;;;;15.43;5.82;;;;;;;;;;143726;591;46012;-55
2021/09/19 09:02:54;;;;;;;18.90;6.07;;;;;;;;;;143729;607;45024;-55
2021/09/19 09:05:26;;;;;;;16.37;5.20;;;;;;;;;;143730;586;46022;-55
2021/09/19 09:07:55;;;;;;;15.68;5.80;;;;;;;;;;143728;674;46018;-56
2021/09/19 09:10:42;;;;;;;17.12;6.03;;;;;;;;;;143730;591;46012;-55
2021/09/19 09:13:12;;;;;;;18.55;5.53;;;;;;;;;;143730;634;45019;-55
2021/09/19 09:15:47;;;;;;;14.80;5.85;;;;;;;;;;143732;569;45040;-55
2021/09/19 09:18:27;;;;;;;25.80;6.15;;;;;;;;;;143727;602;46018;-54
2021/09/19 09:20:57;;;;;;;15.35;5.15;;;;;;;;;;143727;626;46012;-54
2021/09/19 09:23:47;;;;;;;18.73;6.68;;;;;;;;;;143730;676;45019;-55
2021/09/19 09:26:27;;;;;;;23.75;6.10;;;;;;;;;;143732;569;45022;-54
2021/09/19 09:29:08;;;;;;;21.27;6.55;;;;;;;;;;143726;583;46020;-54
2021/09/19 09:31:47;;;;;;;17.08;6.68;;;;;;;;;;143730;651;46012;-55
2021/09/19 09:34:19;;;;;;;20.05;5.85;;;;;;;;;;143731;580;45018;-55
2021/09/19 09:37:06;;;;;;;20.17;6.95;;;;;;;;;;143730;594;46023;-54
2021/09/19 09:39:38;;;;;;;18.15;6.30;;;;;;;;;;143730;697;46018;-55
2021/09/19 09:42:14;;;;;;;16.95;7.30;;;;;;;;;;143727;587;46012;-55
2021/09/19 09:45:01;;;;;;;21.65;6.10;;;;;;;;;;143730;589;45019;-55
2021/09/19 09:47:29;;;;;;;15.48;6.15;;;;;;;;;;143732;738;45022;-55
2021/09/19 09:50:00;;;;;;;18.58;6.45;;;;;;;;;;143728;570;46019;-55
2021/09/19 09:52:33;;;;;;;19.58;5.62;;;;;;;;;;143727;564;46012;-55
2021/09/19 09:55:03;;;;;;;24.70;6.65;;;;;;;;;;143730;672;45018;-55
2021/09/19 09:58:06;;;;;;;18.52;6.85;;;;;;;;;;143730;630;46010;-54
2021/09/19 10:00:33;;;;;;;20.55;6.65;;;;;;;;;;143728;647;46018;-55
2021/09/19 10:03:01;;;;;;;21.48;6.93;;;;;;;;;;143727;698;46012;-54
2021/09/19 10:05:28;;;;;;;17.75;6.12;;;;;;;;;;143731;659;45020;-55
2021/09/19 10:07:56;;;;;;;18.67;5.97;;;;;;;;;;143731;583;46023;-55
2021/09/19 10:10:24;;;;;;;19.70;6.12;;;;;;;;;;143726;602;46018;-55
2021/09/19 10:12:52;;;;;;;18.83;6.32;;;;;;;;;;143727;604;46013;-54
2021/09/19 10:15:20;;;;;;;24.83;7.12;;;;;;;;;;143729;624;45021;-54
2021/09/19 10:17:48;;;;;;;21.75;6.68;;;;;;;;;;143731;622;46022;-54
2021/09/19 10:20:39;;;;;;;22.17;7.45;;;;;;;;;;143726;611;46019;-55
2021/09/19 10:23:25;;;;;;;23.40;6.87;;;;;;;;;;143727;569;46012;-54
2021/09/19 10:26:00;;;;;;;21.80;6.75;;;;;;;;;;143729;619;45018;-55
2021/09/19 10:28:48;;;;;;;17.17;6.20;;;;;;;;;;143732;639;45023;-54
2021/09/19 10:31:18;;;;;;;18.92;6.20;;;;;;;;;;143725;644;47018;-55
2021/09/19 10:34:06;;;;;;;18.02;6.37;;;;;;;;;;143726;577;46012;-54
2021/09/19 10:36:49;;;;;;;20.88;6.45;;;;;;;;;;143729;649;45021;-55
2021/09/19 10:39:25;;;;;;;16.12;5.85;;;;;;;;;;143729;604;46012;-55
2021/09/19 10:42:16;;;;;;;18.60;6.00;;;;;;;;;;143727;582;46020;-55
2021/09/19 10:45:15;;;;;;;15.18;5.93;;;;;;;;;;143727;642;46022;-55
2021/09/19 10:47:58;;;;;;;15.30;6.10;;;;;;;;;;143731;565;45030;-55
2021/09/19 10:50:37;;;;;;;19.00;5.93;;;;;;;;;;143731;608;46022;-55
2021/09/19 10:53:26;;;;;;;15.05;5.57;;;;;;;;;;143729;612;46027;-55
2021/09/19 10:56:01;;;;;;;20.83;7.37;;;;;;;;;;143725;591;46022;-55
2021/09/19 10:58:38;;;;;;;20.70;6.00;;;;;;;;;;143729;604;46012;-55
2021/09/19 11:01:25;;;;;;;18.02;6.10;;;;;;;;;;143732;613;46010;-55
2021/09/19 11:04:12;;;;;;;17.20;6.18;;;;;;;;;;143731;571;45020;-55
2021/09/19 11:06:40;;;;;;;18.12;5.93;;;;;;;;;;143728;594;46022;-56
2021/09/19 11:09:27;;;;;;;23.40;6.97;;;;;;;;;;143731;592;45018;-55
2021/09/19 11:12:19;;;;;;;18.42;6.18;;;;;;;;;;143731;622;46022;-56
2021/09/19 11:15:00;;;;;;;20.27;6.07;;;;;;;;;;143728;575;46019;-55
2021/09/19 11:17:34;;;;;;;18.12;5.57;;;;;;;;;;143726;569;46022;-55
2021/09/19 11:20:25;;;;;;;19.25;5.97;;;;;;;;;;143728;688;45019;-55
2021/09/19 11:23:16;;;;;;;20.40;6.03;;;;;;;;;;143731;599;46022;-56
2021/09/19 11:25:43;;;;;;;18.15;5.72;;;;;;;;;;143728;587;47018;-56
2021/09/19 11:28:11;;;;;;;19.90;5.60;;;;;;;;;;143725;576;46023;-55
2021/09/19 11:30:38;;;;;;;15.30;5.62;;;;;;;;;;143731;653;45018;-55
2021/09/19 11:33:12;;;;;;;18.12;5.97;;;;;;;;;;143732;595;46010;-55
2021/09/19 11:35:40;;;;;;;19.15;5.40;;;;;;;;;;143757;578;45019;-55
2021/09/19 11:38:07;;;;;;;17.70;5.80;;;;;;;;;;143754;593;45921;-55
2021/09/19 11:40:34;;;;;;;20.52;5.47;;;;;;;;;;143755;591;45012;-56
2021/09/19 11:43:08;;;;;;;20.77;5.70;;;;;;;;;;143759;590;45023;-55
2021/09/19 11:45:35;;;;;;;15.50;5.20;;;;;;;;;;143757;679;45018;-55
2021/09/19 11:48:02;;;;;;;13.35;5.45;;;;;;;;;;143754;571;45920;-55
2021/09/19 11:50:34;;;;;;;20.75;5.87;;;;;;;;;;143757;593;45012;-55
2021/09/19 11:53:05;;;;;;;16.65;5.50;;;;;;;;;;143757;575;45023;-55
2021/09/19 11:55:32;;;;;;;22.75;6.10;;;;;;;;;;143757;606;45020;-55
2021/09/19 11:58:00;;;;;;;19.75;5.87;;;;;;;;;;143755;572;45920;-55
2021/09/19 12:00:31;;;;;;;21.25;6.35;;;;;;;;;;143756;585;45012;-55
2021/09/19 12:02:58;;;;;;;24.90;6.70;;;;;;;;;;143759;601;45022;-54
2021/09/19 12:05:25;;;;;;;16.60;5.78;;;;;;;;;;143756;630;45019;-55
2021/09/19 12:07:52;;;;;;;24.42;6.93;;;;;;;;;;143754;596;46921;-55
2021/09/19 12:10:24;;;;;;;18.00;5.90;;;;;;;;;;143757;587;45012;-55
2021/09/19 12:12:51;;;;;;;15.98;5.72;;;;;;;;;;143758;582;45022;-55
2021/09/19 12:15:26;;;;;;;14.40;5.62;;;;;;;;;;143757;586;45020;-55
2021/09/19 12:18:06;;;;;;;14.07;5.20;;;;;;;;;;143757;600;45022;-55
2021/09/19 12:20:34;;;;;;;17.70;6.12;;;;;;;;;;143756;574;45012;-55
2021/09/19 12:23:21;;;;;;;19.90;6.22;;;;;;;;;;143759;575;45010;-54
2021/09/19 12:25:49;;;;;;;21.55;6.05;;;;;;;;;;143758;563;45018;-55
2021/09/19 12:28:34;;;;;;;21.23;6.25;;;;;;;;;;143754;577;45920;-54
2021/09/19 12:31:02;;;;;;;19.75;6.18;;;;;;;;;;143758;576;45012;-55
2021/09/19 12:33:29;;;;;;;18.02;5.62;;;;;;;;;;143757;673;45022;-55
2021/09/19 12:35:56;;;;;;;14.32;5.22;;;;;;;;;;143730;745;46019;-55
2021/09/19 12:38:27;;;;;;;21.75;6.00;;;;;;;;;;143729;627;46022;-55
2021/09/19 12:41:05;;;;;;;17.52;5.53;;;;;;;;;;143729;617;46018;-54
2021/09/19 12:43:32;;;;;;;16.90;5.95;;;;;;;;;;143733;570;46023;-55
2021/09/19 12:45:59;;;;;;;15.63;5.47;;;;;;;;;;143729;582;46020;-54
2021/09/19 12:48:29;;;;;;;18.75;5.75;;;;;;;;;;143728;594;46022;-54
2021/09/19 12:51:01;;;;;;;20.17;5.93;;;;;;;;;;143727;606;46019;-55
2021/09/19 12:53:31;;;;;;;19.25;5.85;;;;;;;;;;143734;576;45022;-54
2021/09/19 12:55:58;;;;;;;18.92;6.15;;;;;;;;;;143730;580;46019;-55
2021/09/19 12:58:26;;;;;;;16.27;5.47;;;;;;;;;;143731;701;46023;-55
2021/09/19 13:00:54;;;;;;;25.27;7.45;;;;;;;;;;143732;589;45018;-54
2021/09/19 13:03:22;;;;;;;18.87;6.32;;;;;;;;;;143732;588;46010;-55
2021/09/19 13:05:54;;;;;;;14.68;5.65;;;;;;;;;;143730;592;46019;-55
2021/09/19 13:08:21;;;;;;;17.40;5.78;;;;;;;;;;143728;564;46022;-55
2021/09/19 13:10:49;;;;;;;16.50;5.55;;;;;;;;;;143734;585;45018;-55
2021/09/19 13:13:19;;;;;;;20.05;5.90;;;;;;;;;;143733;605;46023;-55
2021/09/19 13:15:46;;;;;;;17.60;5.60;;;;;;;;;;143729;571;46018;-56
2021/09/19 13:18:13;;;;;;;17.17;4.95;;;;;;;;;;143728;588;46022;-55
2021/09/19 13:20:40;;;;;;;14.15;5.25;;;;;;;;;;143731;572;45021;-55
2021/09/19 13:23:07;;;;;;;23.70;7.20;;;;;;;;;;143733;583;46010;-55
2021/09/19 13:25:34;;;;;;;18.65;5.35;;;;;;;;;;143730;593;46018;-55
2021/09/19 13:28:01;;;;;;;22.85;6.25;;;;;;;;;;143728;593;46022;-54
2021/09/19 13:30:28;;;;;;;20.92;6.65;;;;;;;;;;143729;591;46012;-55
2021/09/19 13:32:55;;;;;;;18.62;5.40;;;;;;;;;;143734;575;45022;-54
2021/09/19 13:35:22;;;;;;;20.75;5.43;;;;;;;;;;143729;569;46020;-54
2021/09/19 13:37:50;;;;;;;18.23;5.68;;;;;;;;;;143732;605;46012;-54
2021/09/19 13:40:17;;;;;;;16.08;6.30;;;;;;;;;;143730;574;46012;-55
2021/09/19 13:42:44;;;;;;;21.75;5.75;;;;;;;;;;143734;672;45023;-55
2021/09/19 13:45:11;;;;;;;21.30;6.05;;;;;;;;;;143730;600;46018;-55
2021/09/19 13:47:38;;;;;;;22.33;6.87;;;;;;;;;;143728;637;46022;-54
2021/09/19 13:50:06;;;;;;;18.65;5.55;;;;;;;;;;143731;636;45019;-54
2021/09/19 13:52:33;;;;;;;19.12;6.37;;;;;;;;;;143734;632;45022;-54
2021/09/19 13:55:00;;;;;;;17.27;5.53;;;;;;;;;;143730;569;46020;-55
2021/09/19 13:57:27;;;;;;;18.33;6.25;;;;;;;;;;143730;581;46012;-54
2021/09/19 13:59:54;;;;;;;19.37;6.43;;;;;;;;;;143729;601;45912;-55
2021/09/19 14:02:21;;;;;;;18.42;6.18;;;;;;;;;;143734;569;45022;-54
2021/09/19 14:04:48;;;;;;;19.05;6.05;;;;;;;;;;143730;574;46019;-55
2021/09/19 14:07:15;;;;;;;23.02;6.85;;;;;;;;;;143730;629;46012;-55
2021/09/19 14:09:42;;;;;;;19.17;6.25;;;;;;;;;;143731;641;45018;-55
2021/09/19 14:12:09;;;;;;;16.15;4.95;;;;;;;;;;143732;658;46026;-55
2021/09/19 14:14:36;;;;;;;19.55;5.75;;;;;;;;;;143730;589;46018;-54
2021/09/19 14:17:04;;;;;;;17.73;5.80;;;;;;;;;;143728;592;46920;-55
2021/09/19 14:19:31;;;;;;;18.67;6.22;;;;;;;;;;143729;581;46012;-54
2021/09/19 14:21:58;;;;;;;21.00;5.68;;;;;;;;;;143733;610;46022;-54
2021/09/19 14:24:26;;;;;;;18.95;7.12;;;;;;;;;;143730;617;46018;-55
2021/09/19 14:26:53;;;;;;;20.88;6.53;;;;;;;;;;143726;578;46023;-55
2021/09/19 14:29:20;;;;;;;15.65;5.78;;;;;;;;;;143730;605;46012;-54
2021/09/19 14:31:47;;;;;;;19.77;6.68;;;;;;;;;;143732;641;46010;-54
2021/09/19 14:34:14;;;;;;;18.27;6.55;;;;;;;;;;143727;582;46019;-55
2021/09/19 14:36:41;;;;;;;19.55;5.70;;;;;;;;;;143727;682;46022;-55
2021/09/19 14:39:08;;;;;;;16.60;6.07;;;;;;;;;;143731;563;45021;-54
2021/09/19 14:41:36;;;;;;;14.38;5.25;;;;;;;;;;143731;567;47010;-54
2021/09/19 14:44:03;;;;;;;15.38;6.22;;;;;;;;;;143729;694;47018;-55